sensor_id;sensor_type;location;lat;lon;timestamp;pressure;altitude;pressure_sealevel;temperature;humidity
48652;BME280;34442;52.362;-1.302;2024-03-23T00:54:00;100052.66;;;10.02;69.17
48652;BME280;34442;52.362;-1.302;2024-03-23T00:56:26;100049.06;;;10.35;68.50
48652;BME280;34442;52.362;-1.302;2024-03-23T00:58:51;100046.00;;;10.25;68.53
48652;BME280;34442;52.362;-1.302;2024-03-23T01:01:17;100040.69;;;10.05;68.78
48652;BME280;34442;52.362;-1.302;2024-03-23T01:03:42;100043.38;;;9.98;68.72
48652;BME280;34442;52.362;-1.302;2024-03-23T01:06:07;100039.22;;;9.95;68.93
48652;BME280;34442;52.362;-1.302;2024-03-23T01:08:33;100028.66;;;10.07;69.44
48652;BME280;34442;52.362;-1.302;2024-03-23T01:11:00;100029.56;;;9.81;69.64
48652;BME280;34442;52.362;-1.302;2024-03-23T01:13:26;100031.41;;;10.01;69.53
48652;BME280;34442;52.362;-1.302;2024-03-23T01:15:53;100011.59;;;10.47;68.12
48652;BME280;34442;52.362;-1.302;2024-03-23T01:18:20;100014.94;;;10.35;67.75
48652;BME280;34442;52.362;-1.302;2024-03-23T01:20:46;100013.09;;;10.36;68.23
48652;BME280;34442;52.362;-1.302;2024-03-23T01:23:11;100011.03;;;10.38;68.52
48652;BME280;34442;52.362;-1.302;2024-03-23T01:25:37;100008.19;;;10.26;68.78
48652;BME280;34442;52.362;-1.302;2024-03-23T01:28:03;100005.47;;;10.33;68.16
48652;BME280;34442;52.362;-1.302;2024-03-23T01:30:28;100001.75;;;10.27;68.60
48652;BME280;34442;52.362;-1.302;2024-03-23T01:32:54;100006.44;;;9.87;69.99
48652;BME280;34442;52.362;-1.302;2024-03-23T01:35:19;100011.56;;;9.95;69.36
48652;BME280;34442;52.362;-1.302;2024-03-23T01:37:45;100005.06;;;9.44;71.30
48652;BME280;34442;52.362;-1.302;2024-03-23T01:40:11;100009.59;;;9.57;70.39
48652;BME280;34442;52.362;-1.302;2024-03-23T01:42:39;99999.91;;;9.56;71.36
48652;BME280;34442;52.362;-1.302;2024-03-23T01:45:07;100005.72;;;9.47;72.13
48652;BME280;34442;52.362;-1.302;2024-03-23T01:47:35;100002.63;;;9.36;71.92
48652;BME280;34442;52.362;-1.302;2024-03-23T01:50:01;99988.34;;;9.49;71.84
48652;BME280;34442;52.362;-1.302;2024-03-23T01:52:27;99997.38;;;9.75;71.09
48652;BME280;34442;52.362;-1.302;2024-03-23T01:54:53;99993.94;;;9.48;71.04
48652;BME280;34442;52.362;-1.302;2024-03-23T01:57:22;99992.25;;;9.53;71.32
48652;BME280;34442;52.362;-1.302;2024-03-23T01:59:48;99992.31;;;9.13;72.72
48652;BME280;34442;52.362;-1.302;2024-03-23T02:02:13;99984.25;;;9.33;72.16
48652;BME280;34442;52.362;-1.302;2024-03-23T02:04:39;99985.91;;;8.94;74.20
48652;BME280;34442;52.362;-1.302;2024-03-23T02:07:06;99980.09;;;9.37;72.33
48652;BME280;34442;52.362;-1.302;2024-03-23T02:09:33;99978.22;;;9.58;71.52
48652;BME280;34442;52.362;-1.302;2024-03-23T02:11:58;99972.22;;;9.62;70.64
48652;BME280;34442;52.362;-1.302;2024-03-23T02:14:24;99973.44;;;9.80;70.97
48652;BME280;34442;52.362;-1.302;2024-03-23T02:16:49;99979.03;;;9.72;71.56
48652;BME280;34442;52.362;-1.302;2024-03-23T02:19:14;99970.56;;;9.68;71.16
48652;BME280;34442;52.362;-1.302;2024-03-23T02:21:40;99974.28;;;9.67;71.22
48652;BME280;34442;52.362;-1.302;2024-03-23T02:24:05;99968.47;;;9.70;71.27
48652;BME280;34442;52.362;-1.302;2024-03-23T02:26:31;99967.94;;;9.55;72.20
48652;BME280;34442;52.362;-1.302;2024-03-23T02:28:56;99966.00;;;9.75;71.25
48652;BME280;34442;52.362;-1.302;2024-03-23T02:31:22;99960.53;;;9.30;72.09
48652;BME280;34442;52.362;-1.302;2024-03-23T02:33:47;99968.94;;;9.67;71.32
48652;BME280;34442;52.362;-1.302;2024-03-23T02:36:13;99955.38;;;9.35;72.37
48652;BME280;34442;52.362;-1.302;2024-03-23T02:38:38;99949.56;;;9.45;72.72
48652;BME280;34442;52.362;-1.302;2024-03-23T02:41:04;99944.03;;;9.27;72.10
48652;BME280;34442;52.362;-1.302;2024-03-23T02:43:29;99948.13;;;9.36;72.36
48652;BME280;34442;52.362;-1.302;2024-03-23T02:45:55;99947.28;;;9.49;72.16
48652;BME280;34442;52.362;-1.302;2024-03-23T02:48:20;99940.56;;;9.06;73.00
48652;BME280;34442;52.362;-1.302;2024-03-23T02:50:45;99939.69;;;9.32;72.23
48652;BME280;34442;52.362;-1.302;2024-03-23T02:53:11;99933.53;;;9.12;73.08
48652;BME280;34442;52.362;-1.302;2024-03-23T02:55:36;99939.09;;;9.10;73.86
48652;BME280;34442;52.362;-1.302;2024-03-23T02:58:02;99931.47;;;9.01;73.96
48652;BME280;34442;52.362;-1.302;2024-03-23T03:00:28;99935.50;;;9.50;72.64
48652;BME280;34442;52.362;-1.302;2024-03-23T03:02:54;99922.09;;;9.56;72.05
48652;BME280;34442;52.362;-1.302;2024-03-23T03:05:19;99921.94;;;9.31;72.39
48652;BME280;34442;52.362;-1.302;2024-03-23T03:07:46;99920.50;;;9.29;72.30
48652;BME280;34442;52.362;-1.302;2024-03-23T03:10:11;99912.47;;;9.09;73.25
48652;BME280;34442;52.362;-1.302;2024-03-23T03:12:37;99916.63;;;8.78;74.75
48652;BME280;34442;52.362;-1.302;2024-03-23T03:15:04;99915.59;;;8.86;74.35
48652;BME280;34442;52.362;-1.302;2024-03-23T03:17:30;99912.09;;;9.05;73.83
48652;BME280;34442;52.362;-1.302;2024-03-23T03:19:55;99907.50;;;9.26;72.58
48652;BME280;34442;52.362;-1.302;2024-03-23T03:22:22;99902.97;;;9.13;73.70
48652;BME280;34442;52.362;-1.302;2024-03-23T03:24:47;99906.97;;;8.77;74.49
48652;BME280;34442;52.362;-1.302;2024-03-23T03:27:12;99898.25;;;9.15;73.56
48652;BME280;34442;52.362;-1.302;2024-03-23T03:29:38;99893.53;;;8.84;74.02
48652;BME280;34442;52.362;-1.302;2024-03-23T03:32:03;99902.19;;;8.92;74.34
48652;BME280;34442;52.362;-1.302;2024-03-23T03:34:29;99908.56;;;9.05;74.12
48652;BME280;34442;52.362;-1.302;2024-03-23T03:36:55;99909.19;;;9.00;74.19
48652;BME280;34442;52.362;-1.302;2024-03-23T03:39:20;99894.78;;;9.01;74.18
48652;BME280;34442;52.362;-1.302;2024-03-23T03:41:48;99893.94;;;8.87;74.24
48652;BME280;34442;52.362;-1.302;2024-03-23T03:44:13;99886.47;;;9.23;73.28
48652;BME280;34442;52.362;-1.302;2024-03-23T03:46:38;99894.53;;;9.23;73.03
48652;BME280;34442;52.362;-1.302;2024-03-23T03:49:04;99888.16;;;9.04;73.45
48652;BME280;34442;52.362;-1.302;2024-03-23T03:51:30;99898.22;;;9.35;72.28
48652;BME280;34442;52.362;-1.302;2024-03-23T03:53:56;99888.34;;;9.09;72.67
48652;BME280;34442;52.362;-1.302;2024-03-23T03:56:21;99890.22;;;9.15;73.24
48652;BME280;34442;52.362;-1.302;2024-03-23T03:58:47;99893.13;;;8.87;74.17
48652;BME280;34442;52.362;-1.302;2024-03-23T04:01:13;99883.84;;;8.63;74.68
48652;BME280;34442;52.362;-1.302;2024-03-23T04:03:38;99892.09;;;8.61;75.21
48652;BME280;34442;52.362;-1.302;2024-03-23T04:06:08;99889.00;;;8.91;74.87
48652;BME280;34442;52.362;-1.302;2024-03-23T04:08:34;99882.81;;;8.64;75.90
48652;BME280;34442;52.362;-1.302;2024-03-23T04:10:59;99878.09;;;8.73;75.55
48652;BME280;34442;52.362;-1.302;2024-03-23T04:13:25;99886.34;;;8.58;75.51
48652;BME280;34442;52.362;-1.302;2024-03-23T04:15:54;99878.06;;;8.99;74.19
48652;BME280;34442;52.362;-1.302;2024-03-23T04:18:20;99880.97;;;8.98;74.01
48652;BME280;34442;52.362;-1.302;2024-03-23T04:20:46;99881.97;;;8.97;74.53
48652;BME280;34442;52.362;-1.302;2024-03-23T04:23:12;99879.88;;;9.18;73.85
48652;BME280;34442;52.362;-1.302;2024-03-23T04:25:37;99872.47;;;9.01;73.43
48652;BME280;34442;52.362;-1.302;2024-03-23T04:28:03;99870.03;;;8.59;75.08
48652;BME280;34442;52.362;-1.302;2024-03-23T04:30:28;99880.16;;;8.70;75.26
48652;BME280;34442;52.362;-1.302;2024-03-23T04:32:54;99876.81;;;8.88;74.31
48652;BME280;34442;52.362;-1.302;2024-03-23T04:35:20;99869.84;;;8.67;75.31
48652;BME280;34442;52.362;-1.302;2024-03-23T04:37:47;99869.84;;;8.81;75.68
48652;BME280;34442;52.362;-1.302;2024-03-23T04:40:12;99864.28;;;8.89;75.58
48652;BME280;34442;52.362;-1.302;2024-03-23T04:42:38;99860.16;;;8.66;75.51
48652;BME280;34442;52.362;-1.302;2024-03-23T04:45:05;99856.88;;;8.44;76.77
48652;BME280;34442;52.362;-1.302;2024-03-23T04:47:31;99858.91;;;8.82;75.63
48652;BME280;34442;52.362;-1.302;2024-03-23T04:49:56;99853.75;;;8.67;75.82
48652;BME280;34442;52.362;-1.302;2024-03-23T04:52:22;99853.38;;;8.44;76.41
48652;BME280;34442;52.362;-1.302;2024-03-23T04:54:47;99855.84;;;8.65;76.03
48652;BME280;34442;52.362;-1.302;2024-03-23T04:57:13;99851.50;;;8.51;76.47
48652;BME280;34442;52.362;-1.302;2024-03-23T04:59:38;99851.28;;;8.79;75.48
48652;BME280;34442;52.362;-1.302;2024-03-23T05:02:04;99852.75;;;8.68;75.91
48652;BME280;34442;52.362;-1.302;2024-03-23T05:04:29;99858.91;;;8.62;76.08
48652;BME280;34442;52.362;-1.302;2024-03-23T05:06:55;99858.06;;;8.29;77.10
48652;BME280;34442;52.362;-1.302;2024-03-23T05:09:20;99859.97;;;8.61;77.16
48652;BME280;34442;52.362;-1.302;2024-03-23T05:11:46;99857.22;;;8.21;78.80
48652;BME280;34442;52.362;-1.302;2024-03-23T05:14:14;99853.97;;;8.66;77.54
48652;BME280;34442;52.362;-1.302;2024-03-23T05:16:40;99855.22;;;8.50;77.42
48652;BME280;34442;52.362;-1.302;2024-03-23T05:19:06;99856.84;;;8.84;75.75
48652;BME280;34442;52.362;-1.302;2024-03-23T05:21:31;99840.78;;;8.71;76.18
48652;BME280;34442;52.362;-1.302;2024-03-23T05:23:56;99839.28;;;8.88;75.83
48652;BME280;34442;52.362;-1.302;2024-03-23T05:26:22;99840.78;;;8.58;76.48
48652;BME280;34442;52.362;-1.302;2024-03-23T05:28:48;99825.31;;;8.33;77.25
48652;BME280;34442;52.362;-1.302;2024-03-23T05:31:26;99829.66;;;8.74;76.99
48652;BME280;34442;52.362;-1.302;2024-03-23T05:33:51;99828.19;;;8.85;75.84
48652;BME280;34442;52.362;-1.302;2024-03-23T05:36:17;99833.75;;;8.24;77.50
48652;BME280;34442;52.362;-1.302;2024-03-23T05:38:43;99828.16;;;8.91;75.24
48652;BME280;34442;52.362;-1.302;2024-03-23T05:41:08;99820.19;;;8.65;76.60
48652;BME280;34442;52.362;-1.302;2024-03-23T05:43:34;99821.75;;;8.92;74.72
48652;BME280;34442;52.362;-1.302;2024-03-23T05:46:00;99824.72;;;8.64;76.15
48652;BME280;34442;52.362;-1.302;2024-03-23T05:48:26;99826.53;;;8.84;75.68
48652;BME280;34442;52.362;-1.302;2024-03-23T05:50:53;99826.09;;;9.00;74.96
48652;BME280;34442;52.362;-1.302;2024-03-23T05:53:19;99827.56;;;8.76;75.45
48652;BME280;34442;52.362;-1.302;2024-03-23T05:55:48;99828.59;;;8.75;76.51
48652;BME280;34442;52.362;-1.302;2024-03-23T05:58:15;99823.25;;;8.75;76.21
48652;BME280;34442;52.362;-1.302;2024-03-23T06:00:41;99813.75;;;8.86;75.21
48652;BME280;34442;52.362;-1.302;2024-03-23T06:03:10;99814.16;;;8.83;75.81
48652;BME280;34442;52.362;-1.302;2024-03-23T06:05:39;99811.91;;;8.66;76.82
48652;BME280;34442;52.362;-1.302;2024-03-23T06:08:05;99809.88;;;8.42;77.44
48652;BME280;34442;52.362;-1.302;2024-03-23T06:10:30;99800.16;;;8.67;76.71
48652;BME280;34442;52.362;-1.302;2024-03-23T06:12:57;99802.34;;;9.04;75.70
48652;BME280;34442;52.362;-1.302;2024-03-23T06:15:23;99800.38;;;8.66;76.32
48652;BME280;34442;52.362;-1.302;2024-03-23T06:17:49;99795.84;;;8.60;77.65
48652;BME280;34442;52.362;-1.302;2024-03-23T06:20:15;99795.81;;;8.86;76.10
48652;BME280;34442;52.362;-1.302;2024-03-23T06:22:40;99802.00;;;8.80;75.78
48652;BME280;34442;52.362;-1.302;2024-03-23T06:25:06;99798.13;;;8.69;77.54
48652;BME280;34442;52.362;-1.302;2024-03-23T06:27:32;99790.94;;;8.43;78.41
48652;BME280;34442;52.362;-1.302;2024-03-23T06:29:59;99782.22;;;8.68;77.72
48652;BME280;34442;52.362;-1.302;2024-03-23T06:32:24;99790.28;;;8.61;77.64
48652;BME280;34442;52.362;-1.302;2024-03-23T06:34:50;99778.72;;;8.67;78.03
48652;BME280;34442;52.362;-1.302;2024-03-23T06:37:15;99776.19;;;8.99;76.51
48652;BME280;34442;52.362;-1.302;2024-03-23T06:39:41;99778.09;;;8.72;77.17
48652;BME280;34442;52.362;-1.302;2024-03-23T06:42:06;99774.31;;;9.00;77.21
48652;BME280;34442;52.362;-1.302;2024-03-23T06:44:33;99777.22;;;8.98;76.41
48652;BME280;34442;52.362;-1.302;2024-03-23T06:46:58;99770.50;;;8.62;77.57
48652;BME280;34442;52.362;-1.302;2024-03-23T06:49:24;99778.31;;;8.77;77.64
48652;BME280;34442;52.362;-1.302;2024-03-23T06:51:49;99768.81;;;8.81;77.78
48652;BME280;34442;52.362;-1.302;2024-03-23T06:54:16;99781.81;;;8.78;77.96
48652;BME280;34442;52.362;-1.302;2024-03-23T06:56:43;99774.00;;;8.30;80.28
48652;BME280;34442;52.362;-1.302;2024-03-23T06:59:09;99766.97;;;8.75;78.42
48652;BME280;34442;52.362;-1.302;2024-03-23T07:01:34;99766.16;;;8.81;78.98
48652;BME280;34442;52.362;-1.302;2024-03-23T07:04:00;99758.75;;;8.70;79.12
48652;BME280;34442;52.362;-1.302;2024-03-23T07:06:25;99769.47;;;8.70;78.86
48652;BME280;34442;52.362;-1.302;2024-03-23T07:08:52;99762.44;;;8.76;79.41
48652;BME280;34442;52.362;-1.302;2024-03-23T07:11:24;99762.88;;;8.66;79.34
48652;BME280;34442;52.362;-1.302;2024-03-23T07:13:50;99761.66;;;8.42;80.34
48652;BME280;34442;52.362;-1.302;2024-03-23T07:16:16;99757.72;;;8.64;79.52
48652;BME280;34442;52.362;-1.302;2024-03-23T07:18:42;99764.94;;;8.51;80.35
48652;BME280;34442;52.362;-1.302;2024-03-23T07:21:07;99747.75;;;8.91;78.97
48652;BME280;34442;52.362;-1.302;2024-03-23T07:23:33;99761.78;;;8.93;78.41
48652;BME280;34442;52.362;-1.302;2024-03-23T07:26:00;99750.84;;;8.88;78.59
48652;BME280;34442;52.362;-1.302;2024-03-23T07:28:25;99759.69;;;8.95;78.17
48652;BME280;34442;52.362;-1.302;2024-03-23T07:33:30;99747.13;;;9.41;76.55
48652;BME280;34442;52.362;-1.302;2024-03-23T07:35:55;99758.75;;;8.70;78.50
48652;BME280;34442;52.362;-1.302;2024-03-23T07:38:21;99752.88;;;9.00;78.41
48652;BME280;34442;52.362;-1.302;2024-03-23T07:40:46;99752.44;;;9.09;77.86
48652;BME280;34442;52.362;-1.302;2024-03-23T07:43:12;99759.00;;;9.20;77.67
48652;BME280;34442;52.362;-1.302;2024-03-23T07:45:40;99755.50;;;9.13;77.28
48652;BME280;34442;52.362;-1.302;2024-03-23T07:48:06;99749.22;;;9.32;76.78
48652;BME280;34442;52.362;-1.302;2024-03-23T07:50:31;99753.63;;;9.58;76.68
48652;BME280;34442;52.362;-1.302;2024-03-23T07:56:01;99763.28;;;9.98;75.08
48652;BME280;34442;52.362;-1.302;2024-03-23T07:58:26;99752.94;;;9.69;76.26
48652;BME280;34442;52.362;-1.302;2024-03-23T08:00:56;99748.16;;;9.40;76.51
48652;BME280;34442;52.362;-1.302;2024-03-23T08:03:22;99743.00;;;10.33;74.18
48652;BME280;34442;52.362;-1.302;2024-03-23T08:05:47;99741.00;;;9.65;75.97
48652;BME280;34442;52.362;-1.302;2024-03-23T08:08:13;99750.81;;;9.78;75.43
48652;BME280;34442;52.362;-1.302;2024-03-23T08:10:51;99748.97;;;9.47;76.10
48652;BME280;34442;52.362;-1.302;2024-03-23T08:13:17;99752.41;;;9.54;76.80
48652;BME280;34442;52.362;-1.302;2024-03-23T08:15:43;99751.44;;;9.80;75.72
48652;BME280;34442;52.362;-1.302;2024-03-23T08:18:12;99745.63;;;9.52;77.08
48652;BME280;34442;52.362;-1.302;2024-03-23T08:20:38;99736.03;;;9.69;76.73
48652;BME280;34442;52.362;-1.302;2024-03-23T08:23:07;99726.47;;;9.80;75.05
48652;BME280;34442;52.362;-1.302;2024-03-23T08:25:34;99726.66;;;9.78;75.77
48652;BME280;34442;52.362;-1.302;2024-03-23T08:28:00;99725.06;;;9.95;75.52
48652;BME280;34442;52.362;-1.302;2024-03-23T08:30:26;99726.09;;;10.26;73.85
48652;BME280;34442;52.362;-1.302;2024-03-23T08:32:51;99735.09;;;10.38;73.83
48652;BME280;34442;52.362;-1.302;2024-03-23T08:35:17;99738.16;;;9.92;74.55
48652;BME280;34442;52.362;-1.302;2024-03-23T08:37:43;99726.56;;;9.91;75.33
48652;BME280;34442;52.362;-1.302;2024-03-23T08:40:08;99722.16;;;10.29;74.97
48652;BME280;34442;52.362;-1.302;2024-03-23T08:42:34;99725.81;;;10.34;74.57
48652;BME280;34442;52.362;-1.302;2024-03-23T08:45:00;99735.78;;;10.89;72.46
48652;BME280;34442;52.362;-1.302;2024-03-23T08:47:25;99717.56;;;10.54;73.14
48652;BME280;34442;52.362;-1.302;2024-03-23T08:49:51;99728.41;;;9.91;73.73
48652;BME280;34442;52.362;-1.302;2024-03-23T08:52:16;99719.34;;;10.42;73.48
48652;BME280;34442;52.362;-1.302;2024-03-23T08:54:42;99714.69;;;10.74;72.50
48652;BME280;34442;52.362;-1.302;2024-03-23T08:57:07;99722.25;;;10.40;73.69
48652;BME280;34442;52.362;-1.302;2024-03-23T08:59:33;99716.06;;;10.77;73.50
48652;BME280;34442;52.362;-1.302;2024-03-23T09:01:58;99720.94;;;10.50;73.81
48652;BME280;34442;52.362;-1.302;2024-03-23T09:04:24;99719.88;;;10.51;73.56
48652;BME280;34442;52.362;-1.302;2024-03-23T09:06:49;99722.56;;;10.51;73.79
48652;BME280;34442;52.362;-1.302;2024-03-23T09:09:15;99712.09;;;10.61;73.70
48652;BME280;34442;52.362;-1.302;2024-03-23T09:11:40;99715.63;;;10.80;72.09
48652;BME280;34442;52.362;-1.302;2024-03-23T09:14:05;99706.09;;;11.32;71.47
48652;BME280;34442;52.362;-1.302;2024-03-23T09:16:31;99715.09;;;11.08;73.23
48652;BME280;34442;52.362;-1.302;2024-03-23T09:18:59;99701.28;;;11.04;72.88
48652;BME280;34442;52.362;-1.302;2024-03-23T09:21:40;99701.91;;;11.18;69.86
48652;BME280;34442;52.362;-1.302;2024-03-23T09:24:06;99700.53;;;11.27;71.74
48652;BME280;34442;52.362;-1.302;2024-03-23T09:26:32;99701.06;;;11.36;72.35
48652;BME280;34442;52.362;-1.302;2024-03-23T09:28:57;99688.78;;;11.82;71.78
48652;BME280;34442;52.362;-1.302;2024-03-23T09:31:22;99689.81;;;11.69;70.67
48652;BME280;34442;52.362;-1.302;2024-03-23T09:33:48;99688.97;;;11.57;71.07
48652;BME280;34442;52.362;-1.302;2024-03-23T09:36:13;99689.19;;;10.77;73.81
48652;BME280;34442;52.362;-1.302;2024-03-23T09:38:40;99688.44;;;11.36;72.44
48652;BME280;34442;52.362;-1.302;2024-03-23T09:41:09;99683.53;;;10.66;71.10
48652;BME280;34442;52.362;-1.302;2024-03-23T09:43:35;99685.25;;;10.79;72.19
48652;BME280;34442;52.362;-1.302;2024-03-23T09:46:04;99674.63;;;10.84;71.24
48652;BME280;34442;52.362;-1.302;2024-03-23T09:48:29;99687.72;;;11.11;72.63
48652;BME280;34442;52.362;-1.302;2024-03-23T09:50:54;99683.06;;;11.18;72.18
48652;BME280;34442;52.362;-1.302;2024-03-23T09:53:20;99682.72;;;11.45;71.39
48652;BME280;34442;52.362;-1.302;2024-03-23T09:55:47;99680.28;;;11.55;71.19
48652;BME280;34442;52.362;-1.302;2024-03-23T09:58:15;99666.75;;;11.73;70.84
48652;BME280;34442;52.362;-1.302;2024-03-23T10:00:41;99669.22;;;11.75;70.06
48652;BME280;34442;52.362;-1.302;2024-03-23T10:03:06;99666.28;;;11.76;70.44
48652;BME280;34442;52.362;-1.302;2024-03-23T10:05:33;99677.31;;;10.84;73.56
48652;BME280;34442;52.362;-1.302;2024-03-23T10:08:00;99681.63;;;10.49;75.79
48652;BME280;34442;52.362;-1.302;2024-03-23T10:10:25;99682.56;;;10.17;78.13
48652;BME280;34442;52.362;-1.302;2024-03-23T10:12:51;99695.06;;;10.49;77.29
48652;BME280;34442;52.362;-1.302;2024-03-23T10:15:21;99700.75;;;9.90;80.76
48652;BME280;34442;52.362;-1.302;2024-03-23T10:17:47;99703.28;;;10.10;78.83
48652;BME280;34442;52.362;-1.302;2024-03-23T10:20:13;99706.00;;;9.79;81.08
48652;BME280;34442;52.362;-1.302;2024-03-23T10:22:43;99702.31;;;10.05;79.67
48652;BME280;34442;52.362;-1.302;2024-03-23T10:25:10;99706.13;;;10.15;79.78
48652;BME280;34442;52.362;-1.302;2024-03-23T10:27:36;99694.63;;;10.33;79.14
48652;BME280;34442;52.362;-1.302;2024-03-23T10:30:12;99680.59;;;10.68;79.17
48652;BME280;34442;52.362;-1.302;2024-03-23T10:32:39;99674.25;;;10.44;77.44
48652;BME280;34442;52.362;-1.302;2024-03-23T10:35:19;99673.53;;;10.55;79.60
48652;BME280;34442;52.362;-1.302;2024-03-23T10:37:47;99676.50;;;10.29;80.44
48652;BME280;34442;52.362;-1.302;2024-03-23T10:40:16;99671.19;;;10.40;79.21
48652;BME280;34442;52.362;-1.302;2024-03-23T10:42:42;99660.28;;;10.72;78.52
48652;BME280;34442;52.362;-1.302;2024-03-23T10:45:08;99667.00;;;10.81;77.61
48652;BME280;34442;52.362;-1.302;2024-03-23T10:47:35;99669.25;;;10.84;78.11
48652;BME280;34442;52.362;-1.302;2024-03-23T10:50:01;99672.84;;;10.60;79.92
48652;BME280;34442;52.362;-1.302;2024-03-23T10:52:28;99680.94;;;10.16;82.59
48652;BME280;34442;52.362;-1.302;2024-03-23T10:54:54;99672.38;;;10.81;80.51
48652;BME280;34442;52.362;-1.302;2024-03-23T10:57:27;99669.56;;;10.76;80.43
48652;BME280;34442;52.362;-1.302;2024-03-23T10:59:56;99643.19;;;10.48;81.29
48652;BME280;34442;52.362;-1.302;2024-03-23T11:02:22;99658.66;;;11.20;78.79
48652;BME280;34442;52.362;-1.302;2024-03-23T11:04:48;99641.25;;;10.74;80.33
48652;BME280;34442;52.362;-1.302;2024-03-23T11:07:32;99645.13;;;10.78;81.41
48652;BME280;34442;52.362;-1.302;2024-03-23T11:09:59;99654.09;;;10.72;79.99
48652;BME280;34442;52.362;-1.302;2024-03-23T11:12:25;99652.06;;;10.49;81.68
48652;BME280;34442;52.362;-1.302;2024-03-23T11:15:13;99650.56;;;9.91;84.82
48652;BME280;34442;52.362;-1.302;2024-03-23T11:17:39;99645.28;;;10.28;82.12
48652;BME280;34442;52.362;-1.302;2024-03-23T11:20:06;99641.47;;;10.35;82.49
48652;BME280;34442;52.362;-1.302;2024-03-23T11:27:40;99629.13;;;10.09;84.25
48652;BME280;34442;52.362;-1.302;2024-03-23T11:30:22;99626.50;;;10.46;85.40
48652;BME280;34442;52.362;-1.302;2024-03-23T11:32:49;99631.78;;;9.66;88.08
48652;BME280;34442;52.362;-1.302;2024-03-23T11:35:31;99626.72;;;10.01;88.56
48652;BME280;34442;52.362;-1.302;2024-03-23T11:40:47;99619.56;;;10.38;86.47
48652;BME280;34442;52.362;-1.302;2024-03-23T11:43:15;99631.28;;;10.19;86.69
48652;BME280;34442;52.362;-1.302;2024-03-23T11:45:42;99623.81;;;9.59;92.38
48652;BME280;34442;52.362;-1.302;2024-03-23T11:50:42;99621.94;;;9.85;88.80
48652;BME280;34442;52.362;-1.302;2024-03-23T11:55:43;99625.78;;;10.14;88.90
48652;BME280;34442;52.362;-1.302;2024-03-23T11:58:10;99617.34;;;10.10;88.92
48652;BME280;34442;52.362;-1.302;2024-03-23T12:00:36;99611.66;;;10.25;87.92
48652;BME280;34442;52.362;-1.302;2024-03-23T12:03:02;99595.50;;;10.62;87.63
48652;BME280;34442;52.362;-1.302;2024-03-23T12:05:29;99598.78;;;10.64;89.25
48652;BME280;34442;52.362;-1.302;2024-03-23T12:07:55;99599.56;;;11.13;88.19
48652;BME280;34442;52.362;-1.302;2024-03-23T12:10:20;99613.59;;;11.15;88.95
48652;BME280;34442;52.362;-1.302;2024-03-23T12:12:46;99602.00;;;11.03;88.82
48652;BME280;34442;52.362;-1.302;2024-03-23T12:15:22;99611.41;;;11.24;86.12
48652;BME280;34442;52.362;-1.302;2024-03-23T12:17:48;99596.22;;;10.69;86.12
48652;BME280;34442;52.362;-1.302;2024-03-23T12:20:14;99593.41;;;11.24;85.48
48652;BME280;34442;52.362;-1.302;2024-03-23T12:22:39;99581.09;;;11.16;86.07
48652;BME280;34442;52.362;-1.302;2024-03-23T12:25:05;99583.44;;;11.25;86.01
48652;BME280;34442;52.362;-1.302;2024-03-23T12:27:31;99578.56;;;11.45;84.55
48652;BME280;34442;52.362;-1.302;2024-03-23T12:29:57;99582.16;;;11.15;85.15
48652;BME280;34442;52.362;-1.302;2024-03-23T12:32:23;99580.97;;;11.23;84.03
48652;BME280;34442;52.362;-1.302;2024-03-23T12:34:48;99578.44;;;10.86;83.88
48652;BME280;34442;52.362;-1.302;2024-03-23T12:37:14;99575.97;;;11.27;83.76
48652;BME280;34442;52.362;-1.302;2024-03-23T12:39:43;99574.28;;;11.14;84.26
48652;BME280;34442;52.362;-1.302;2024-03-23T12:42:08;99568.94;;;11.26;83.89
48652;BME280;34442;52.362;-1.302;2024-03-23T12:44:34;99562.75;;;11.25;82.26
48652;BME280;34442;52.362;-1.302;2024-03-23T12:46:59;99559.41;;;11.53;81.76
48652;BME280;34442;52.362;-1.302;2024-03-23T12:49:25;99559.84;;;12.09;81.12
48652;BME280;34442;52.362;-1.302;2024-03-23T12:51:55;99566.97;;;12.38;80.33
48652;BME280;34442;52.362;-1.302;2024-03-23T12:54:21;99547.81;;;12.00;80.57
48652;BME280;34442;52.362;-1.302;2024-03-23T12:56:46;99541.66;;;12.39;79.00
48652;BME280;34442;52.362;-1.302;2024-03-23T12:59:12;99548.97;;;12.04;77.63
48652;BME280;34442;52.362;-1.302;2024-03-23T13:01:38;99551.09;;;12.02;79.47
48652;BME280;34442;52.362;-1.302;2024-03-23T13:04:04;99551.31;;;12.12;78.19
48652;BME280;34442;52.362;-1.302;2024-03-23T13:06:29;99556.69;;;12.12;77.25
48652;BME280;34442;52.362;-1.302;2024-03-23T13:09:02;99552.78;;;12.43;76.71
48652;BME280;34442;52.362;-1.302;2024-03-23T13:11:28;99549.41;;;12.24;76.84
48652;BME280;34442;52.362;-1.302;2024-03-23T13:13:54;99548.88;;;11.87;76.57
48652;BME280;34442;52.362;-1.302;2024-03-23T13:16:19;99541.97;;;12.03;74.97
48652;BME280;34442;52.362;-1.302;2024-03-23T13:18:45;99545.94;;;11.88;73.38
48652;BME280;34442;52.362;-1.302;2024-03-23T13:21:10;99554.72;;;11.96;73.12
48652;BME280;34442;52.362;-1.302;2024-03-23T13:23:35;99580.28;;;11.16;77.12
48652;BME280;34442;52.362;-1.302;2024-03-23T13:26:03;99584.38;;;10.88;78.92
48652;BME280;34442;52.362;-1.302;2024-03-23T13:28:28;99585.41;;;10.76;79.30
48652;BME280;34442;52.362;-1.302;2024-03-23T13:30:55;99588.75;;;10.41;80.09
48652;BME280;34442;52.362;-1.302;2024-03-23T13:33:22;99589.09;;;10.44;80.30
48652;BME280;34442;52.362;-1.302;2024-03-23T13:35:54;99573.81;;;10.75;79.62
48652;BME280;34442;52.362;-1.302;2024-03-23T13:38:21;99578.19;;;10.88;81.09
48652;BME280;34442;52.362;-1.302;2024-03-23T13:40:57;99568.31;;;11.00;80.67
48652;BME280;34442;52.362;-1.302;2024-03-23T13:43:24;99562.63;;;11.43;79.79
48652;BME280;34442;52.362;-1.302;2024-03-23T13:45:54;99567.34;;;11.36;78.73
48652;BME280;34442;52.362;-1.302;2024-03-23T13:48:21;99555.16;;;11.46;78.25
48652;BME280;34442;52.362;-1.302;2024-03-23T13:50:47;99561.00;;;11.42;78.15
48652;BME280;34442;52.362;-1.302;2024-03-23T13:53:14;99560.84;;;11.14;80.00
48652;BME280;34442;52.362;-1.302;2024-03-23T13:55:48;99561.72;;;11.50;79.83
48652;BME280;34442;52.362;-1.302;2024-03-23T13:58:15;99552.00;;;11.37;79.90
48652;BME280;34442;52.362;-1.302;2024-03-23T14:00:41;99562.97;;;11.35;80.11
48652;BME280;34442;52.362;-1.302;2024-03-23T14:03:09;99548.28;;;11.50;78.71